createdAt,value
2022-09-04T00:02:10.240Z,18.50
2022-09-04T00:04:49.120Z,18.62
2022-09-04T00:07:25.371Z,18.53
2022-09-04T00:10:09.652Z,18.27
2022-09-04T00:12:45.268Z,18.51
2022-09-04T00:15:19.448Z,18.19
2022-09-04T00:17:54.901Z,18.45
2022-09-04T00:20:33.207Z,18.26
2022-09-04T00:23:08.066Z,18.52
2022-09-04T00:25:42.244Z,18.59
2022-09-04T00:28:18.317Z,18.51
2022-09-04T00:30:54.253Z,18.27
2022-09-04T00:33:28.433Z,18.54
2022-09-04T00:36:01.023Z,18.28
2022-09-04T00:38:42.164Z,18.57
2022-09-04T00:41:22.756Z,18.01
2022-09-04T00:44:09.676Z,17.96
2022-09-04T00:47:20.541Z,18.28
2022-09-04T00:50:14.746Z,18.14
2022-09-04T00:53:06.490Z,17.80
2022-09-04T00:55:57.864Z,17.92
2022-09-04T00:58:40.656Z,18.11
2022-09-04T01:01:12.845Z,18.34
2022-09-04T01:04:25.256Z,17.99
2022-09-04T01:07:11.411Z,18.04
2022-09-04T01:10:00.280Z,17.98
2022-09-04T01:12:39.110Z,17.98
2022-09-04T01:15:16.107Z,17.98
2022-09-04T01:17:54.666Z,18.07
2022-09-04T01:20:39.256Z,17.99
2022-09-04T01:23:36.877Z,18.07
2022-09-04T01:26:23.905Z,18.03
2022-09-04T01:29:02.757Z,18.19
2022-09-04T01:31:40.151Z,17.79
2022-09-04T01:34:26.719Z,17.62
2022-09-04T01:37:01.077Z,17.91
2022-09-04T01:39:32.806Z,17.49
2022-09-04T01:42:08.011Z,17.59
2022-09-04T01:44:36.965Z,17.77
2022-09-04T01:47:16.626Z,17.62
2022-09-04T01:49:49.768Z,17.43
2022-09-04T01:52:36.639Z,17.78
2022-09-04T01:55:14.756Z,17.68
2022-09-04T01:57:55.456Z,17.50
2022-09-04T02:00:25.040Z,17.56
2022-09-04T02:03:02.269Z,17.23
2022-09-04T02:05:37.749Z,17.47
2022-09-04T02:08:17.453Z,17.47
2022-09-04T02:10:52.014Z,17.78
2022-09-04T02:13:30.292Z,17.04
2022-09-04T02:16:08.349Z,16.88
2022-09-04T02:18:50.970Z,17.58
2022-09-04T02:21:27.038Z,17.47
2022-09-04T02:24:05.727Z,17.01
2022-09-04T02:26:42.221Z,17.34
2022-09-04T02:29:20.249Z,16.93
2022-09-04T02:31:57.132Z,16.93
2022-09-04T02:34:36.181Z,17.02
2022-09-04T02:37:12.994Z,17.42
2022-09-04T02:39:56.277Z,17.01
2022-09-04T02:42:32.188Z,17.22
2022-09-04T02:45:14.862Z,17.27
2022-09-04T02:47:48.839Z,17.10
2022-09-04T02:50:32.300Z,16.79
2022-09-04T02:53:18.384Z,16.95
2022-09-04T02:55:59.683Z,16.94
2022-09-04T02:58:36.973Z,16.87
2022-09-04T03:01:12.871Z,16.84
2022-09-04T03:03:48.103Z,16.95
2022-09-04T03:06:23.234Z,16.92
2022-09-04T03:08:57.650Z,16.66
2022-09-04T03:11:32.951Z,16.85
2022-09-04T03:14:08.160Z,16.48
2022-09-04T03:16:43.492Z,16.49
2022-09-04T03:19:19.668Z,16.63
2022-09-04T03:21:54.812Z,16.80
2022-09-04T03:24:29.498Z,16.47
2022-09-04T03:27:02.616Z,17.09
2022-09-04T03:29:39.368Z,16.36
2022-09-04T03:32:19.720Z,16.56
2022-09-04T03:34:53.311Z,16.66
2022-09-04T03:37:34.191Z,16.36
2022-09-04T03:40:14.289Z,16.59
2022-09-04T03:42:59.550Z,16.63
2022-09-04T03:45:35.673Z,16.57
2022-09-04T03:48:16.654Z,16.51
2022-09-04T03:50:52.699Z,16.56
2022-09-04T03:53:31.297Z,16.81
2022-09-04T03:56:28.639Z,16.67
2022-09-04T03:59:04.598Z,16.78
2022-09-04T04:01:45.383Z,16.52
2022-09-04T04:04:44.153Z,16.82
2022-09-04T04:07:25.114Z,16.78
2022-09-04T04:10:03.652Z,16.35
2022-09-04T04:12:49.850Z,16.78
2022-09-04T04:15:31.578Z,16.72
2022-09-04T04:18:18.050Z,16.32
2022-09-04T04:20:57.067Z,17.04
2022-09-04T04:23:56.897Z,16.23
2022-09-04T04:26:40.648Z,16.65
2022-09-04T04:29:30.193Z,16.68
2022-09-04T04:32:16.727Z,17.00
2022-09-04T04:35:05.663Z,16.69
2022-09-04T04:37:51.658Z,16.75
2022-09-04T04:40:33.707Z,16.52
2022-09-04T04:43:13.997Z,16.50
2022-09-04T04:45:50.358Z,16.75
2022-09-04T04:48:47.712Z,16.82
2022-09-04T04:51:31.380Z,16.98
2022-09-04T04:54:16.129Z,16.71
2022-09-04T04:56:51.629Z,16.59
2022-09-04T04:59:24.169Z,16.62
2022-09-04T05:02:04.837Z,16.72
2022-09-04T05:04:46.025Z,16.98
2022-09-04T05:07:26.745Z,17.09
2022-09-04T05:10:02.832Z,17.07
2022-09-04T05:12:49.482Z,16.67
2022-09-04T05:15:22.244Z,17.03
2022-09-04T05:17:54.631Z,17.38
2022-09-04T05:20:34.335Z,16.49
2022-09-04T05:23:14.023Z,16.99
2022-09-04T05:25:52.704Z,17.12
2022-09-04T05:28:31.201Z,16.83
2022-09-04T05:31:10.805Z,16.79
2022-09-04T05:33:46.160Z,17.35
2022-09-04T05:36:21.088Z,17.32
2022-09-04T05:38:59.419Z,16.66
2022-09-04T05:42:04.472Z,17.56
2022-09-04T05:44:46.239Z,17.46
2022-09-04T05:47:30.649Z,17.25
2022-09-04T05:50:25.424Z,17.46
2022-09-04T05:53:11.261Z,17.29
2022-09-04T05:55:59.616Z,17.68
2022-09-04T05:58:57.150Z,17.57
2022-09-04T06:01:52.446Z,17.17
2022-09-04T06:04:43.152Z,17.68
2022-09-04T06:07:19.219Z,17.69
2022-09-04T06:10:00.958Z,17.53
2022-09-04T06:12:58.853Z,17.46
2022-09-04T06:15:37.570Z,17.62
2022-09-04T06:18:40.961Z,17.70
2022-09-04T06:21:22.391Z,18.29
2022-09-04T06:24:02.353Z,18.41
2022-09-04T06:26:46.907Z,18.04
2022-09-04T06:29:28.901Z,18.26
2022-09-04T06:32:20.795Z,18.40
2022-09-04T06:35:09.473Z,18.53
2022-09-04T06:37:45.466Z,18.69
2022-09-04T06:40:26.706Z,18.43
2022-09-04T06:43:08.653Z,18.33
2022-09-04T06:45:49.416Z,18.61
2022-09-04T06:48:34.004Z,18.71
2022-09-04T06:51:13.732Z,19.03
2022-09-04T06:53:51.455Z,18.97
2022-09-04T06:56:35.237Z,18.76
2022-09-04T06:59:25.141Z,18.65
2022-09-04T07:02:04.594Z,18.25
2022-09-04T07:04:45.482Z,18.41
2022-09-04T07:07:23.427Z,18.76
2022-09-04T07:10:01.161Z,18.60
2022-09-04T07:12:56.705Z,18.63
2022-09-04T07:15:44.447Z,19.28
2022-09-04T07:18:31.314Z,18.85
2022-09-04T07:21:12.169Z,18.56
2022-09-04T07:23:46.882Z,19.04
2022-09-04T07:26:28.414Z,19.21
2022-09-04T07:29:26.009Z,19.59
2022-09-04T07:32:02.458Z,19.91
2022-09-04T07:34:39.158Z,19.25
2022-09-04T07:37:17.472Z,19.06
2022-09-04T07:39:55.578Z,19.44
2022-09-04T07:42:32.753Z,19.32
2022-09-04T07:45:06.436Z,19.99
2022-09-04T07:47:43.062Z,19.82
2022-09-04T07:50:14.637Z,19.37
2022-09-04T07:53:04.255Z,19.61
2022-09-04T07:55:41.738Z,19.39
2022-09-04T07:58:34.530Z,19.69
2022-09-04T08:01:19.665Z,19.84
2022-09-04T08:04:08.456Z,19.90
2022-09-04T08:06:41.188Z,19.81
2022-09-04T08:09:28.229Z,19.75
2022-09-04T08:12:19.037Z,19.76
2022-09-04T08:14:55.519Z,19.40
2022-09-04T08:17:43.131Z,19.55
2022-09-04T08:20:34.630Z,20.05
2022-09-04T08:23:18.470Z,20.26
2022-09-04T08:25:55.934Z,20.35
2022-09-04T08:28:40.169Z,20.65
2022-09-04T08:31:24.267Z,20.45
2022-09-04T08:34:11.278Z,20.09
2022-09-04T08:36:45.209Z,20.76
2022-09-04T08:39:20.907Z,20.41
2022-09-04T08:42:31.425Z,20.23
2022-09-04T08:45:32.369Z,20.66
2022-09-04T08:48:49.316Z,21.04
2022-09-04T08:51:57.140Z,20.97
2022-09-04T08:55:00.694Z,21.39
2022-09-04T08:58:04.611Z,21.32
2022-09-04T09:00:48.087Z,21.54
2022-09-04T09:03:41.534Z,21.68
2022-09-04T09:06:55.174Z,21.63
2022-09-04T09:10:09.744Z,21.78
2022-09-04T09:13:20.220Z,21.64
2022-09-04T09:16:10.458Z,22.06
2022-09-04T09:18:42.549Z,22.14
2022-09-04T09:21:13.645Z,22.24
2022-09-04T09:24:00.588Z,22.17
2022-09-04T09:26:31.104Z,22.23
2022-09-04T09:29:35.047Z,22.83
2022-09-04T09:32:38.462Z,22.85
2022-09-04T09:35:58.791Z,22.70
2022-09-04T09:38:56.997Z,23.40
2022-09-04T09:41:46.962Z,24.08
2022-09-04T09:44:48.288Z,23.66
2022-09-04T09:50:42.963Z,23.88
2022-09-04T09:53:46.853Z,24.22
2022-09-04T09:56:55.670Z,24.67
2022-09-04T09:59:45.380Z,24.47
2022-09-04T10:03:01.275Z,24.82
2022-09-04T10:06:07.468Z,25.12
2022-09-04T10:09:09.386Z,26.36
2022-09-04T10:12:18.786Z,27.33
2022-09-04T10:15:19.663Z,27.97
2022-09-04T10:18:23.150Z,25.90
2022-09-04T10:21:27.257Z,25.73
2022-09-04T10:24:27.588Z,26.43
2022-09-04T10:27:21.375Z,25.70
2022-09-04T10:30:04.417Z,26.48
2022-09-04T10:33:18.695Z,26.72
2022-09-04T10:36:06.281Z,26.92
2022-09-04T10:39:01.381Z,27.92
2022-09-04T10:42:03.504Z,27.33
2022-09-04T10:44:44.492Z,27.56
2022-09-04T10:47:28.064Z,26.67
2022-09-04T10:50:26.517Z,26.92
2022-09-04T10:53:20.670Z,27.42
2022-09-04T10:56:09.200Z,25.94
2022-09-04T10:59:04.886Z,26.84
2022-09-04T11:02:01.798Z,27.59
2022-09-04T11:05:00.918Z,26.07
2022-09-04T11:07:46.200Z,25.59
2022-09-04T11:10:34.082Z,24.99
2022-09-04T11:13:28.158Z,24.80
2022-09-04T11:16:10.591Z,25.90
2022-09-04T11:19:10.436Z,25.46
2022-09-04T11:22:17.126Z,26.44
2022-09-04T11:25:21.988Z,27.54
2022-09-04T11:28:26.824Z,25.84
2022-09-04T11:31:09.507Z,25.60
2022-09-04T11:34:20.140Z,26.66
2022-09-04T11:37:23.924Z,27.31
2022-09-04T11:40:26.719Z,28.43
2022-09-04T11:43:07.910Z,27.76
2022-09-04T11:45:57.699Z,28.37
2022-09-04T11:49:05.208Z,27.84
2022-09-04T11:51:52.661Z,27.29
2022-09-04T11:54:49.528Z,28.17
2022-09-04T11:57:28.774Z,27.63
2022-09-04T12:00:12.776Z,27.32
2022-09-04T12:03:15.135Z,26.76
2022-09-04T12:05:56.293Z,25.40
2022-09-04T12:09:07.152Z,25.96
2022-09-04T12:11:54.963Z,26.49
2022-09-04T12:14:43.121Z,28.21
2022-09-04T12:17:39.301Z,28.44
2022-09-04T12:20:49.719Z,29.72
2022-09-04T12:23:57.745Z,29.25
2022-09-04T12:26:51.627Z,27.27
2022-09-04T12:29:50.371Z,27.61
2022-09-04T12:33:08.978Z,28.48
2022-09-04T12:36:01.701Z,29.00
2022-09-04T12:39:03.553Z,28.07
2022-09-04T12:41:39.030Z,28.44
2022-09-04T12:44:16.514Z,27.99
2022-09-04T12:47:05.384Z,28.56
2022-09-04T12:50:00.337Z,27.85
2022-09-04T12:52:40.420Z,28.84
2022-09-04T12:55:16.685Z,29.20
2022-09-04T12:57:58.237Z,30.24
2022-09-04T13:00:46.064Z,30.98
2022-09-04T13:03:27.612Z,29.51
2022-09-04T13:06:09.852Z,30.74
2022-09-04T13:08:50.508Z,31.25
2022-09-04T13:11:38.087Z,31.49
2022-09-04T13:14:27.883Z,31.36
2022-09-04T13:17:08.467Z,30.54
2022-09-04T13:19:46.465Z,31.21
2022-09-04T13:22:28.772Z,30.01
2022-09-04T13:25:11.504Z,29.00
2022-09-04T13:27:53.975Z,27.44
2022-09-04T13:30:25.574Z,27.34
2022-09-04T13:33:39.703Z,26.73
2022-09-04T13:36:24.432Z,27.50
2022-09-04T13:39:23.571Z,28.16
2022-09-04T13:42:37.515Z,28.63
2022-09-04T13:45:11.883Z,29.30
2022-09-04T13:47:49.621Z,29.37
2022-09-04T13:50:25.755Z,27.60
2022-09-04T13:52:59.782Z,27.03
2022-09-04T13:55:32.942Z,28.42
2022-09-04T13:58:10.577Z,26.95
2022-09-04T14:00:45.829Z,28.17
2022-09-04T14:03:26.014Z,29.22
2022-09-04T14:05:54.835Z,29.31
2022-09-04T14:08:24.456Z,29.71
2022-09-04T14:11:27.809Z,29.71
2022-09-04T14:14:33.175Z,30.25
2022-09-04T14:17:01.204Z,29.32
2022-09-04T14:19:43.613Z,29.50
2022-09-04T14:22:25.003Z,30.16
2022-09-04T14:25:06.507Z,29.75
2022-09-04T14:27:47.862Z,29.76
2022-09-04T14:30:18.051Z,29.51
2022-09-04T14:33:07.321Z,29.53
2022-09-04T14:35:46.720Z,29.92
2022-09-04T14:38:35.279Z,27.94
2022-09-04T14:41:16.138Z,28.19
2022-09-04T14:43:50.917Z,28.99
2022-09-04T14:46:24.182Z,28.86
2022-09-04T14:49:02.134Z,28.26
2022-09-04T14:51:38.400Z,28.01
2022-09-04T14:54:08.489Z,27.78
2022-09-04T14:56:43.777Z,28.24
2022-09-04T14:59:22.188Z,27.70
2022-09-04T15:02:07.884Z,27.54
2022-09-04T15:04:43.973Z,26.32
2022-09-04T15:07:36.117Z,26.79
2022-09-04T15:10:10.836Z,26.44
2022-09-04T15:12:43.364Z,26.20
2022-09-04T15:15:20.123Z,26.71
2022-09-04T15:17:53.598Z,27.08
2022-09-04T15:20:23.593Z,27.48
2022-09-04T15:22:59.431Z,27.32
2022-09-04T15:25:58.681Z,26.85
2022-09-04T15:28:34.146Z,26.76
2022-09-04T15:31:15.600Z,25.70
2022-09-04T15:33:46.500Z,26.30
2022-09-04T15:36:20.169Z,26.55
2022-09-04T15:38:53.425Z,25.97
2022-09-04T15:41:35.235Z,26.47
2022-09-04T15:44:15.520Z,25.72
2022-09-04T15:46:50.765Z,26.28
2022-09-04T15:49:28.368Z,26.13
2022-09-04T15:52:10.242Z,27.27
2022-09-04T15:55:05.091Z,25.98
2022-09-04T15:57:48.514Z,25.65
2022-09-04T16:00:22.312Z,25.65
2022-09-04T16:02:54.646Z,26.02
2022-09-04T16:05:28.193Z,25.83
2022-09-04T16:08:04.090Z,25.14
2022-09-04T16:10:48.278Z,25.23
2022-09-04T16:13:35.829Z,25.13
2022-09-04T16:16:09.913Z,25.02
2022-09-04T16:18:50.294Z,24.82
2022-09-04T16:21:29.152Z,24.51
2022-09-04T16:24:09.052Z,24.61
2022-09-04T16:26:39.097Z,24.56
2022-09-04T16:29:15.362Z,24.47
2022-09-04T16:31:52.139Z,24.23
2022-09-04T16:34:25.250Z,24.07
2022-09-04T16:37:01.903Z,24.15
2022-09-04T16:39:50.110Z,23.62
2022-09-04T16:42:24.742Z,23.72
2022-09-04T16:44:59.263Z,23.60
2022-09-04T16:47:37.168Z,23.50
2022-09-04T16:50:16.888Z,23.70
2022-09-04T16:52:56.869Z,23.20
2022-09-04T16:55:46.325Z,23.11
2022-09-04T16:58:34.831Z,23.01
2022-09-04T17:01:14.727Z,22.41
2022-09-04T17:04:11.261Z,22.25
2022-09-04T17:06:56.281Z,22.61
2022-09-04T17:09:32.112Z,22.44
2022-09-04T17:12:16.209Z,22.39
2022-09-04T17:14:53.483Z,22.33
2022-09-04T17:17:32.018Z,22.35
2022-09-04T17:20:09.254Z,22.03
2022-09-04T17:29:02.789Z,21.94
2022-09-04T17:29:15.229Z,21.95
2022-09-04T17:29:16.401Z,22.07
2022-09-04T17:31:46.115Z,21.96
2022-09-04T17:40:36.514Z,21.66
2022-09-04T17:40:56.104Z,21.46
2022-09-04T17:41:34.351Z,21.77
2022-09-04T17:43:22.316Z,21.57
2022-09-04T17:46:02.348Z,21.28
2022-09-04T17:48:34.304Z,21.56
2022-09-04T17:51:05.493Z,21.33
2022-09-04T17:53:38.252Z,21.20
2022-09-04T17:56:13.596Z,21.35
2022-09-04T17:58:47.224Z,21.16
2022-09-04T18:01:23.511Z,20.90
2022-09-04T18:04:27.677Z,21.02
2022-09-04T18:07:00.794Z,20.64
2022-09-04T18:10:01.981Z,20.77
2022-09-04T18:12:35.250Z,20.86
2022-09-04T18:15:33.262Z,20.75
2022-09-04T18:18:08.123Z,20.81
2022-09-04T18:20:41.453Z,20.37
2022-09-04T18:23:51.375Z,20.56
2022-09-04T18:26:27.848Z,20.66
2022-09-04T18:33:53.622Z,20.66
2022-09-04T18:37:16.432Z,20.03
2022-09-04T18:37:26.725Z,20.18
2022-09-04T18:38:44.122Z,20.30
2022-09-04T18:44:11.850Z,20.34
2022-09-04T18:50:22.933Z,20.11
2022-09-04T18:50:31.757Z,20.02
2022-09-04T18:50:52.247Z,20.17
2022-09-04T18:53:08.803Z,20.18
2022-09-04T18:55:45.392Z,20.01
2022-09-04T18:58:46.057Z,19.91
2022-09-04T19:01:25.717Z,19.90
2022-09-04T19:03:57.973Z,19.82
2022-09-04T19:06:38.565Z,19.58
2022-09-04T19:09:15.481Z,19.76
2022-09-04T19:11:50.206Z,19.86
2022-09-04T19:14:21.784Z,19.74
2022-09-04T19:16:54.642Z,19.66
2022-09-04T19:19:29.229Z,19.62
2022-09-04T19:22:09.148Z,19.63
2022-09-04T19:24:48.740Z,19.74
2022-09-04T19:27:26.923Z,19.65
2022-09-04T19:30:18.203Z,19.19
2022-09-04T19:33:12.169Z,19.60
2022-09-04T19:35:47.884Z,19.36
2022-09-04T19:40:44.721Z,19.24
2022-09-04T19:46:09.186Z,19.72
2022-09-04T19:46:16.092Z,19.81
2022-09-04T19:47:15.419Z,19.71
2022-09-04T19:53:21.712Z,19.25
2022-09-04T19:53:31.294Z,19.21
2022-09-04T19:56:00.378Z,19.35
2022-09-04T19:58:38.679Z,19.25
2022-09-04T20:01:15.872Z,19.03
2022-09-04T20:03:54.970Z,19.26
2022-09-04T20:06:30.153Z,19.05
2022-09-04T20:09:03.976Z,19.15
2022-09-04T20:11:36.682Z,19.24
2022-09-04T20:14:14.892Z,19.17
2022-09-04T20:16:59.316Z,19.27
2022-09-04T20:19:37.397Z,19.41
2022-09-04T20:22:10.920Z,19.22
2022-09-04T20:24:42.315Z,19.45
2022-09-04T20:27:36.024Z,19.69
2022-09-04T20:30:12.067Z,19.40
2022-09-04T20:32:55.972Z,19.32
2022-09-04T20:35:33.810Z,19.59
2022-09-04T20:38:12.277Z,19.67
2022-09-04T20:40:43.326Z,19.81
2022-09-04T20:43:28.130Z,19.76
2022-09-04T20:48:43.401Z,19.49
2022-09-04T20:52:49.570Z,19.41
2022-09-04T20:52:53.415Z,19.68
2022-09-04T20:55:11.127Z,19.64
2022-09-04T21:03:05.648Z,19.54
2022-09-04T21:03:17.246Z,19.68
2022-09-04T21:03:59.792Z,19.72
2022-09-04T21:06:34.758Z,19.66
2022-09-04T21:09:25.693Z,19.76
2022-09-04T21:12:00.090Z,19.45
2022-09-04T21:14:43.527Z,19.47
2022-09-04T21:17:48.507Z,19.71
2022-09-04T21:20:59.459Z,19.85
2022-09-04T21:24:03.883Z,19.41
2022-09-04T21:27:04.872Z,19.71
2022-09-04T21:29:50.371Z,19.89
2022-09-04T21:32:53.254Z,19.70
2022-09-04T21:35:33.178Z,19.68
2022-09-04T21:38:14.727Z,19.53
2022-09-04T21:41:02.138Z,19.76
2022-09-04T21:43:58.871Z,19.84
2022-09-04T21:46:56.487Z,19.89
2022-09-04T21:49:56.973Z,20.28
2022-09-04T21:52:44.604Z,20.27
2022-09-04T21:59:04.677Z,19.87
2022-09-04T22:02:29.269Z,20.25
2022-09-04T22:02:35.467Z,20.08
2022-09-04T22:04:48.509Z,19.79
2022-09-04T22:11:26.843Z,20.06
2022-09-04T22:13:29.477Z,20.01
2022-09-04T22:13:50.267Z,20.12
2022-09-04T22:16:34.435Z,19.93
2022-09-04T22:19:21.988Z,20.18
2022-09-04T22:22:03.708Z,20.38
2022-09-04T22:24:55.830Z,19.99
2022-09-04T22:28:01.175Z,20.27
2022-09-04T22:30:38.940Z,20.23
2022-09-04T22:33:29.585Z,20.24
2022-09-04T22:36:35.847Z,20.21
2022-09-04T22:39:46.374Z,19.97
2022-09-04T22:42:38.268Z,20.13
2022-09-04T22:45:43.937Z,20.07
2022-09-04T22:48:47.331Z,19.78
2022-09-04T22:51:41.879Z,20.04
2022-09-04T22:54:36.684Z,20.00
2022-09-04T22:57:08.632Z,19.83
2022-09-04T23:00:03.825Z,20.06
2022-09-04T23:03:09.192Z,20.17
2022-09-04T23:06:43.378Z,19.80
2022-09-04T23:13:49.924Z,19.66
2022-09-04T23:13:57.713Z,19.45
2022-09-04T23:15:32.560Z,19.45
2022-09-04T23:20:57.478Z,19.39
2022-09-04T23:26:37.638Z,19.46
2022-09-04T23:26:42.534Z,19.38
2022-09-04T23:27:34.815Z,19.31
2022-09-04T23:30:27.097Z,19.68
2022-09-04T23:33:27.639Z,19.72
2022-09-04T23:36:33.854Z,19.24
2022-09-04T23:39:29.913Z,19.23
2022-09-04T23:42:14.102Z,19.50
2022-09-04T23:45:12.088Z,19.43
2022-09-04T23:48:19.119Z,19.12
2022-09-04T23:50:55.453Z,19.38
2022-09-04T23:53:35.988Z,19.20
2022-09-04T23:56:18.427Z,19.08
2022-09-04T23:59:21.294Z,19.25
